sensor_id;sensor_type;location;lat;lon;timestamp;noise_LAeq;noise_LA_min;noise_LA_max;noise_LA01;noise_LA95
43938;Laerm;71382;47.750;10.226;2024-02-21T00:01:37;35.22;31.91;39.44;;
43938;Laerm;71382;47.750;10.226;2024-02-21T00:04:02;36.01;34.91;37.88;;
43938;Laerm;71382;47.750;10.226;2024-02-21T00:06:28;36.71;32.10;38.01;;
43938;Laerm;71382;47.750;10.226;2024-02-21T00:08:54;32.74;31.89;36.93;;
43938;Laerm;71382;47.750;10.226;2024-02-21T00:11:19;32.85;31.98;33.73;;
43938;Laerm;71382;47.750;10.226;2024-02-21T00:13:45;32.96;32.02;38.71;;
43938;Laerm;71382;47.750;10.226;2024-02-21T00:16:10;32.91;32.05;37.99;;
43938;Laerm;71382;47.750;10.226;2024-02-21T00:18:36;33.09;32.15;37.63;;
43938;Laerm;71382;47.750;10.226;2024-02-21T00:21:02;32.75;31.98;35.76;;
43938;Laerm;71382;47.750;10.226;2024-02-21T00:23:28;35.54;32.06;47.56;;
43938;Laerm;71382;47.750;10.226;2024-02-21T00:25:54;32.81;31.91;41.40;;
43938;Laerm;71382;47.750;10.226;2024-02-21T00:28:19;33.82;31.73;49.67;;
43938;Laerm;71382;47.750;10.226;2024-02-21T00:30:45;33.86;32.08;44.23;;
43938;Laerm;71382;47.750;10.226;2024-02-21T00:33:13;33.05;32.24;36.19;;
43938;Laerm;71382;47.750;10.226;2024-02-21T00:35:39;33.14;32.40;37.15;;
43938;Laerm;71382;47.750;10.226;2024-02-21T00:38:04;33.86;32.26;47.03;;
43938;Laerm;71382;47.750;10.226;2024-02-21T00:40:30;33.01;32.05;35.37;;
43938;Laerm;71382;47.750;10.226;2024-02-21T00:42:56;33.11;32.34;36.76;;
43938;Laerm;71382;47.750;10.226;2024-02-21T00:45:21;32.91;32.01;35.90;;
43938;Laerm;71382;47.750;10.226;2024-02-21T00:47:47;34.92;32.35;53.20;;
43938;Laerm;71382;47.750;10.226;2024-02-21T00:50:13;32.91;32.12;34.24;;
43938;Laerm;71382;47.750;10.226;2024-02-21T00:52:38;32.93;32.25;33.70;;
43938;Laerm;71382;47.750;10.226;2024-02-21T00:55:04;33.69;32.20;48.09;;
43938;Laerm;71382;47.750;10.226;2024-02-21T00:57:30;32.89;32.27;35.64;;
43938;Laerm;71382;47.750;10.226;2024-02-21T00:59:55;32.97;32.29;37.35;;
43938;Laerm;71382;47.750;10.226;2024-02-21T01:02:21;33.19;32.22;36.88;;
43938;Laerm;71382;47.750;10.226;2024-02-21T01:04:47;33.57;32.29;38.50;;
43938;Laerm;71382;47.750;10.226;2024-02-21T01:07:12;32.77;32.14;34.02;;
43938;Laerm;71382;47.750;10.226;2024-02-21T01:09:38;32.81;32.08;34.66;;
43938;Laerm;71382;47.750;10.226;2024-02-21T01:12:03;35.35;32.01;38.17;;
43938;Laerm;71382;47.750;10.226;2024-02-21T01:14:29;36.39;34.35;38.54;;
43938;Laerm;71382;47.750;10.226;2024-02-21T01:16:55;35.21;33.99;36.72;;
43938;Laerm;71382;47.750;10.226;2024-02-21T01:19:20;36.38;35.67;37.13;;
43938;Laerm;71382;47.750;10.226;2024-02-21T01:21:46;34.26;32.01;38.67;;
43938;Laerm;71382;47.750;10.226;2024-02-21T01:24:11;32.58;31.89;33.15;;
43938;Laerm;71382;47.750;10.226;2024-02-21T01:26:37;33.70;31.76;48.61;;
43938;Laerm;71382;47.750;10.226;2024-02-21T01:29:02;35.70;32.15;48.65;;
43938;Laerm;71382;47.750;10.226;2024-02-21T01:31:28;33.59;32.60;35.24;;
43938;Laerm;71382;47.750;10.226;2024-02-21T01:33:53;32.86;32.22;33.56;;
43938;Laerm;71382;47.750;10.226;2024-02-21T01:36:19;32.88;32.27;33.44;;
43938;Laerm;71382;47.750;10.226;2024-02-21T01:38:45;32.85;32.29;33.52;;
43938;Laerm;71382;47.750;10.226;2024-02-21T01:41:10;32.88;32.19;33.56;;
43938;Laerm;71382;47.750;10.226;2024-02-21T01:43:36;33.02;32.36;34.39;;
43938;Laerm;71382;47.750;10.226;2024-02-21T01:46:02;35.32;32.35;46.38;;
43938;Laerm;71382;47.750;10.226;2024-02-21T01:48:27;32.85;32.18;33.49;;
43938;Laerm;71382;47.750;10.226;2024-02-21T01:50:54;32.71;32.15;33.38;;
43938;Laerm;71382;47.750;10.226;2024-02-21T01:53:24;32.87;32.13;33.52;;
43938;Laerm;71382;47.750;10.226;2024-02-21T01:55:50;32.97;32.34;33.51;;
43938;Laerm;71382;47.750;10.226;2024-02-21T01:58:16;33.28;32.50;34.18;;
43938;Laerm;71382;47.750;10.226;2024-02-21T02:00:43;32.92;32.31;33.60;;
43938;Laerm;71382;47.750;10.226;2024-02-21T02:03:10;32.90;32.22;33.45;;
43938;Laerm;71382;47.750;10.226;2024-02-21T02:05:45;32.84;32.28;33.48;;
43938;Laerm;71382;47.750;10.226;2024-02-21T02:08:14;33.14;32.27;33.86;;
43938;Laerm;71382;47.750;10.226;2024-02-21T02:10:40;32.97;32.18;34.28;;
43938;Laerm;71382;47.750;10.226;2024-02-21T02:13:06;32.85;32.26;33.34;;
43938;Laerm;71382;47.750;10.226;2024-02-21T02:16:04;32.85;32.19;33.49;;
43938;Laerm;71382;47.750;10.226;2024-02-21T02:18:23;32.57;31.83;33.33;;
43938;Laerm;71382;47.750;10.226;2024-02-21T02:20:48;32.45;31.68;33.04;;
43938;Laerm;71382;47.750;10.226;2024-02-21T02:23:28;32.99;31.72;35.29;;
43938;Laerm;71382;47.750;10.226;2024-02-21T02:25:54;32.48;31.85;33.61;;
43938;Laerm;71382;47.750;10.226;2024-02-21T02:28:20;32.41;31.75;33.07;;
43938;Laerm;71382;47.750;10.226;2024-02-21T02:30:46;32.45;31.85;33.02;;
43938;Laerm;71382;47.750;10.226;2024-02-21T02:33:12;32.51;31.84;34.86;;
43938;Laerm;71382;47.750;10.226;2024-02-21T02:35:37;32.61;31.76;33.51;;
43938;Laerm;71382;47.750;10.226;2024-02-21T02:38:03;32.36;31.65;33.05;;
43938;Laerm;71382;47.750;10.226;2024-02-21T02:40:30;32.47;31.83;33.50;;
43938;Laerm;71382;47.750;10.226;2024-02-21T02:42:55;32.84;31.99;35.90;;
43938;Laerm;71382;47.750;10.226;2024-02-21T02:45:21;47.17;31.66;65.36;;
43938;Laerm;71382;47.750;10.226;2024-02-21T02:47:48;32.57;31.76;33.48;;
43938;Laerm;71382;47.750;10.226;2024-02-21T02:50:14;32.45;31.81;33.05;;
43938;Laerm;71382;47.750;10.226;2024-02-21T02:52:40;32.46;31.75;34.78;;
43938;Laerm;71382;47.750;10.226;2024-02-21T02:55:05;32.46;31.86;33.08;;
43938;Laerm;71382;47.750;10.226;2024-02-21T02:57:31;32.75;31.82;34.47;;
43938;Laerm;71382;47.750;10.226;2024-02-21T02:59:57;40.81;32.27;58.18;;
43938;Laerm;71382;47.750;10.226;2024-02-21T03:02:23;33.10;32.13;34.87;;
43938;Laerm;71382;47.750;10.226;2024-02-21T03:04:49;37.74;32.92;53.49;;
43938;Laerm;71382;47.750;10.226;2024-02-21T03:07:15;35.03;33.01;39.63;;
43938;Laerm;71382;47.750;10.226;2024-02-21T03:09:41;39.19;38.51;39.92;;
43938;Laerm;71382;47.750;10.226;2024-02-21T03:12:08;39.41;36.73;45.11;;
43938;Laerm;71382;47.750;10.226;2024-02-21T03:14:34;36.23;33.07;41.10;;
43938;Laerm;71382;47.750;10.226;2024-02-21T03:17:00;34.09;32.99;43.09;;
43938;Laerm;71382;47.750;10.226;2024-02-21T03:19:25;34.32;32.97;45.68;;
43938;Laerm;71382;47.750;10.226;2024-02-21T03:21:51;34.78;32.72;42.64;;
43938;Laerm;71382;47.750;10.226;2024-02-21T03:24:17;33.85;32.89;40.77;;
43938;Laerm;71382;47.750;10.226;2024-02-21T03:26:42;34.18;31.47;52.55;;
43938;Laerm;71382;47.750;10.226;2024-02-21T03:29:08;35.18;31.80;46.38;;
43938;Laerm;71382;47.750;10.226;2024-02-21T03:31:37;35.76;32.57;43.73;;
43938;Laerm;71382;47.750;10.226;2024-02-21T03:34:02;35.37;32.47;46.02;;
43938;Laerm;71382;47.750;10.226;2024-02-21T03:36:28;35.94;32.27;48.73;;
43938;Laerm;71382;47.750;10.226;2024-02-21T03:38:54;32.75;32.03;35.57;;
43938;Laerm;71382;47.750;10.226;2024-02-21T03:41:20;32.97;32.26;35.85;;
43938;Laerm;71382;47.750;10.226;2024-02-21T03:43:45;33.04;32.20;33.84;;
43938;Laerm;71382;47.750;10.226;2024-02-21T03:46:11;33.45;32.60;34.92;;
43938;Laerm;71382;47.750;10.226;2024-02-21T03:48:37;35.95;32.50;48.90;;
43938;Laerm;71382;47.750;10.226;2024-02-21T03:51:02;35.78;32.80;45.48;;
43938;Laerm;71382;47.750;10.226;2024-02-21T03:53:28;37.83;32.43;49.20;;
43938;Laerm;71382;47.750;10.226;2024-02-21T03:55:53;33.68;32.31;45.33;;
43938;Laerm;71382;47.750;10.226;2024-02-21T03:58:20;35.27;31.92;45.85;;
43938;Laerm;71382;47.750;10.226;2024-02-21T04:00:45;43.64;32.39;57.50;;
43938;Laerm;71382;47.750;10.226;2024-02-21T04:03:11;33.12;32.28;36.95;;
43938;Laerm;71382;47.750;10.226;2024-02-21T04:05:36;37.92;32.44;48.58;;
43938;Laerm;71382;47.750;10.226;2024-02-21T04:08:05;39.58;32.79;52.22;;
43938;Laerm;71382;47.750;10.226;2024-02-21T04:10:31;38.89;32.90;50.05;;
43938;Laerm;71382;47.750;10.226;2024-02-21T04:12:56;36.28;32.51;48.28;;
43938;Laerm;71382;47.750;10.226;2024-02-21T04:15:22;39.50;32.40;52.41;;
43938;Laerm;71382;47.750;10.226;2024-02-21T04:17:48;35.41;32.27;48.45;;
43938;Laerm;71382;47.750;10.226;2024-02-21T04:20:15;40.30;32.31;52.88;;
43938;Laerm;71382;47.750;10.226;2024-02-21T04:22:44;33.33;32.37;40.42;;
43938;Laerm;71382;47.750;10.226;2024-02-21T04:25:12;36.83;32.32;48.92;;
43938;Laerm;71382;47.750;10.226;2024-02-21T04:27:38;38.03;32.20;48.50;;
43938;Laerm;71382;47.750;10.226;2024-02-21T04:30:04;37.83;32.59;51.17;;
43938;Laerm;71382;47.750;10.226;2024-02-21T04:32:30;37.26;32.84;48.72;;
43938;Laerm;71382;47.750;10.226;2024-02-21T04:34:56;39.80;32.65;49.74;;
43938;Laerm;71382;47.750;10.226;2024-02-21T04:37:21;40.74;32.75;52.71;;
43938;Laerm;71382;47.750;10.226;2024-02-21T04:39:48;38.06;32.51;48.77;;
43938;Laerm;71382;47.750;10.226;2024-02-21T04:42:13;38.46;32.24;49.21;;
43938;Laerm;71382;47.750;10.226;2024-02-21T04:44:39;37.46;32.66;49.45;;
43938;Laerm;71382;47.750;10.226;2024-02-21T04:47:05;40.08;33.01;51.38;;
43938;Laerm;71382;47.750;10.226;2024-02-21T04:49:30;40.95;33.14;53.22;;
43938;Laerm;71382;47.750;10.226;2024-02-21T04:51:56;41.43;36.88;50.97;;
43938;Laerm;71382;47.750;10.226;2024-02-21T04:54:21;40.28;36.65;56.69;;
43938;Laerm;71382;47.750;10.226;2024-02-21T04:56:47;38.76;33.03;51.83;;
43938;Laerm;71382;47.750;10.226;2024-02-21T04:59:13;42.18;33.76;53.59;;
43938;Laerm;71382;47.750;10.226;2024-02-21T05:01:38;42.94;34.86;51.50;;
43938;Laerm;71382;47.750;10.226;2024-02-21T05:04:04;41.94;38.33;49.37;;
43938;Laerm;71382;47.750;10.226;2024-02-21T05:06:30;43.81;39.17;50.78;;
43938;Laerm;71382;47.750;10.226;2024-02-21T05:08:55;44.75;39.15;58.42;;
43938;Laerm;71382;47.750;10.226;2024-02-21T05:11:23;42.61;37.76;49.13;;
43938;Laerm;71382;47.750;10.226;2024-02-21T05:13:48;41.93;37.25;54.44;;
43938;Laerm;71382;47.750;10.226;2024-02-21T05:16:14;43.00;36.76;50.00;;
43938;Laerm;71382;47.750;10.226;2024-02-21T05:18:40;44.08;38.59;52.34;;
43938;Laerm;71382;47.750;10.226;2024-02-21T05:21:05;43.24;39.26;52.14;;
43938;Laerm;71382;47.750;10.226;2024-02-21T05:23:31;44.28;38.98;52.52;;
43938;Laerm;71382;47.750;10.226;2024-02-21T05:25:57;44.15;38.43;50.81;;
43938;Laerm;71382;47.750;10.226;2024-02-21T05:28:22;42.20;37.14;49.17;;
43938;Laerm;71382;47.750;10.226;2024-02-21T05:30:48;45.64;37.72;59.57;;
43938;Laerm;71382;47.750;10.226;2024-02-21T05:33:13;43.44;38.36;50.21;;
43938;Laerm;71382;47.750;10.226;2024-02-21T05:35:46;44.91;39.16;54.20;;
43938;Laerm;71382;47.750;10.226;2024-02-21T05:38:12;44.99;39.86;52.98;;
43938;Laerm;71382;47.750;10.226;2024-02-21T05:40:38;45.93;37.58;56.06;;
43938;Laerm;71382;47.750;10.226;2024-02-21T05:43:04;43.16;38.91;50.90;;
43938;Laerm;71382;47.750;10.226;2024-02-21T05:45:29;44.01;39.79;57.76;;
43938;Laerm;71382;47.750;10.226;2024-02-21T05:47:55;44.54;39.91;50.63;;
43938;Laerm;71382;47.750;10.226;2024-02-21T05:50:22;44.90;38.38;53.57;;
43938;Laerm;71382;47.750;10.226;2024-02-21T05:52:52;44.39;37.48;51.03;;
43938;Laerm;71382;47.750;10.226;2024-02-21T05:55:18;46.62;38.65;56.94;;
43938;Laerm;71382;47.750;10.226;2024-02-21T05:57:43;45.82;39.33;52.43;;
43938;Laerm;71382;47.750;10.226;2024-02-21T06:00:09;45.05;39.73;50.50;;
43938;Laerm;71382;47.750;10.226;2024-02-21T06:02:38;45.41;39.67;52.46;;
43938;Laerm;71382;47.750;10.226;2024-02-21T06:05:05;45.89;39.98;54.82;;
43938;Laerm;71382;47.750;10.226;2024-02-21T06:07:33;45.90;40.49;56.73;;
43938;Laerm;71382;47.750;10.226;2024-02-21T06:09:59;45.34;39.18;55.16;;
43938;Laerm;71382;47.750;10.226;2024-02-21T06:12:25;45.86;40.09;57.68;;
43938;Laerm;71382;47.750;10.226;2024-02-21T06:14:50;45.37;39.85;56.99;;
43938;Laerm;71382;47.750;10.226;2024-02-21T06:17:16;44.00;38.84;50.98;;
43938;Laerm;71382;47.750;10.226;2024-02-21T06:19:42;45.91;39.52;57.83;;
43938;Laerm;71382;47.750;10.226;2024-02-21T06:22:08;45.25;40.10;51.40;;
43938;Laerm;71382;47.750;10.226;2024-02-21T06:24:34;45.33;40.13;51.82;;
43938;Laerm;71382;47.750;10.226;2024-02-21T06:27:00;46.04;40.49;53.40;;
43938;Laerm;71382;47.750;10.226;2024-02-21T06:29:26;47.18;41.05;62.29;;
43938;Laerm;71382;47.750;10.226;2024-02-21T06:31:51;47.05;40.56;53.81;;
43938;Laerm;71382;47.750;10.226;2024-02-21T06:34:17;45.53;40.60;56.04;;
43938;Laerm;71382;47.750;10.226;2024-02-21T06:36:42;45.70;38.35;57.33;;
43938;Laerm;71382;47.750;10.226;2024-02-21T06:39:10;44.92;38.57;58.49;;
43938;Laerm;71382;47.750;10.226;2024-02-21T06:41:37;45.70;39.77;54.92;;
43938;Laerm;71382;47.750;10.226;2024-02-21T06:44:02;46.22;39.90;63.74;;
43938;Laerm;71382;47.750;10.226;2024-02-21T06:46:28;45.19;40.75;51.13;;
43938;Laerm;71382;47.750;10.226;2024-02-21T06:48:54;46.04;39.13;55.26;;
43938;Laerm;71382;47.750;10.226;2024-02-21T06:51:22;48.66;39.19;73.54;;
43938;Laerm;71382;47.750;10.226;2024-02-21T06:53:47;47.88;38.95;60.13;;
43938;Laerm;71382;47.750;10.226;2024-02-21T06:56:13;44.06;38.87;51.36;;
43938;Laerm;71382;47.750;10.226;2024-02-21T06:58:39;45.04;39.82;58.97;;
43938;Laerm;71382;47.750;10.226;2024-02-21T07:01:04;47.08;41.06;63.00;;
43938;Laerm;71382;47.750;10.226;2024-02-21T07:03:30;45.87;41.01;58.35;;
43938;Laerm;71382;47.750;10.226;2024-02-21T07:05:55;45.72;38.63;58.03;;
43938;Laerm;71382;47.750;10.226;2024-02-21T07:08:21;43.71;39.09;55.69;;
43938;Laerm;71382;47.750;10.226;2024-02-21T07:10:47;46.09;38.75;63.41;;
43938;Laerm;71382;47.750;10.226;2024-02-21T07:13:12;45.00;38.89;51.63;;
43938;Laerm;71382;47.750;10.226;2024-02-21T07:15:38;44.87;36.92;58.52;;
43938;Laerm;71382;47.750;10.226;2024-02-21T07:18:04;43.54;37.00;51.41;;
43938;Laerm;71382;47.750;10.226;2024-02-21T07:20:30;43.26;36.85;53.76;;
43938;Laerm;71382;47.750;10.226;2024-02-21T07:22:55;42.72;38.32;48.47;;
43938;Laerm;71382;47.750;10.226;2024-02-21T07:25:21;46.86;40.13;62.36;;
43938;Laerm;71382;47.750;10.226;2024-02-21T07:27:46;47.44;40.57;63.71;;
43938;Laerm;71382;47.750;10.226;2024-02-21T07:30:12;46.11;41.46;57.94;;
43938;Laerm;71382;47.750;10.226;2024-02-21T07:32:38;45.98;40.86;57.71;;
43938;Laerm;71382;47.750;10.226;2024-02-21T07:35:03;44.97;40.29;54.58;;
43938;Laerm;71382;47.750;10.226;2024-02-21T07:37:30;44.06;39.03;51.19;;
43938;Laerm;71382;47.750;10.226;2024-02-21T07:39:56;44.92;38.92;54.94;;
43938;Laerm;71382;47.750;10.226;2024-02-21T07:42:22;44.32;39.53;53.07;;
43938;Laerm;71382;47.750;10.226;2024-02-21T07:44:47;47.26;38.48;58.05;;
43938;Laerm;71382;47.750;10.226;2024-02-21T07:47:13;44.19;38.20;54.12;;
43938;Laerm;71382;47.750;10.226;2024-02-21T07:49:44;46.74;38.82;58.77;;
43938;Laerm;71382;47.750;10.226;2024-02-21T07:52:11;42.83;39.04;48.66;;
43938;Laerm;71382;47.750;10.226;2024-02-21T07:54:37;44.16;39.03;50.46;;
43938;Laerm;71382;47.750;10.226;2024-02-21T07:57:02;43.79;38.42;53.72;;
43938;Laerm;71382;47.750;10.226;2024-02-21T07:59:29;44.67;37.83;52.54;;
43938;Laerm;71382;47.750;10.226;2024-02-21T08:01:58;46.61;41.81;55.84;;
43938;Laerm;71382;47.750;10.226;2024-02-21T08:04:23;45.48;38.09;55.79;;
43938;Laerm;71382;47.750;10.226;2024-02-21T08:06:52;43.31;38.51;50.86;;
43938;Laerm;71382;47.750;10.226;2024-02-21T08:09:19;44.27;39.22;53.97;;
43938;Laerm;71382;47.750;10.226;2024-02-21T08:11:44;41.39;39.00;45.53;;
43938;Laerm;71382;47.750;10.226;2024-02-21T08:14:10;42.54;37.75;49.54;;
43938;Laerm;71382;47.750;10.226;2024-02-21T08:16:35;44.43;37.71;55.84;;
43938;Laerm;71382;47.750;10.226;2024-02-21T08:19:01;47.88;38.00;61.39;;
43938;Laerm;71382;47.750;10.226;2024-02-21T08:21:29;43.07;37.81;50.46;;
43938;Laerm;71382;47.750;10.226;2024-02-21T08:23:55;42.11;37.80;49.37;;
43938;Laerm;71382;47.750;10.226;2024-02-21T08:26:20;44.60;38.02;54.74;;
43938;Laerm;71382;47.750;10.226;2024-02-21T08:28:46;43.66;38.24;50.50;;
43938;Laerm;71382;47.750;10.226;2024-02-21T08:31:17;43.67;38.36;49.52;;
43938;Laerm;71382;47.750;10.226;2024-02-21T08:33:43;45.75;39.64;53.99;;
43938;Laerm;71382;47.750;10.226;2024-02-21T08:36:09;43.23;38.50;51.31;;
43938;Laerm;71382;47.750;10.226;2024-02-21T08:38:34;44.44;38.40;62.60;;
43938;Laerm;71382;47.750;10.226;2024-02-21T08:41:00;42.99;38.38;54.38;;
43938;Laerm;71382;47.750;10.226;2024-02-21T08:43:25;49.08;41.61;52.85;;
43938;Laerm;71382;47.750;10.226;2024-02-21T08:45:51;49.36;41.12;58.00;;
43938;Laerm;71382;47.750;10.226;2024-02-21T08:48:17;46.80;39.86;63.11;;
43938;Laerm;71382;47.750;10.226;2024-02-21T08:50:42;45.67;40.32;64.26;;
43938;Laerm;71382;47.750;10.226;2024-02-21T08:53:08;44.88;39.75;56.52;;
43938;Laerm;71382;47.750;10.226;2024-02-21T08:55:33;45.15;38.03;56.59;;
43938;Laerm;71382;47.750;10.226;2024-02-21T08:58:00;47.62;41.68;63.56;;
43938;Laerm;71382;47.750;10.226;2024-02-21T09:00:26;45.83;40.38;57.97;;
43938;Laerm;71382;47.750;10.226;2024-02-21T09:02:52;47.38;39.84;64.52;;
43938;Laerm;71382;47.750;10.226;2024-02-21T09:05:18;43.76;38.21;52.74;;
43938;Laerm;71382;47.750;10.226;2024-02-21T09:07:44;44.10;39.50;61.53;;
43938;Laerm;71382;47.750;10.226;2024-02-21T09:10:09;50.40;39.14;64.11;;
43938;Laerm;71382;47.750;10.226;2024-02-21T09:12:35;50.07;46.38;55.82;;
43938;Laerm;71382;47.750;10.226;2024-02-21T09:15:00;50.89;47.94;66.10;;
43938;Laerm;71382;47.750;10.226;2024-02-21T09:17:26;46.85;41.44;55.20;;
43938;Laerm;71382;47.750;10.226;2024-02-21T09:19:54;46.80;41.84;55.33;;
43938;Laerm;71382;47.750;10.226;2024-02-21T09:22:21;45.95;38.79;53.86;;
43938;Laerm;71382;47.750;10.226;2024-02-21T09:24:47;45.66;39.61;54.82;;
43938;Laerm;71382;47.750;10.226;2024-02-21T09:27:13;44.83;39.92;51.97;;
43938;Laerm;71382;47.750;10.226;2024-02-21T09:29:39;45.55;41.51;55.29;;
43938;Laerm;71382;47.750;10.226;2024-02-21T09:32:05;49.61;38.68;59.66;;
43938;Laerm;71382;47.750;10.226;2024-02-21T09:34:31;45.46;38.67;54.07;;
43938;Laerm;71382;47.750;10.226;2024-02-21T09:36:56;47.62;43.23;56.58;;
43938;Laerm;71382;47.750;10.226;2024-02-21T09:39:22;50.44;43.82;62.58;;
43938;Laerm;71382;47.750;10.226;2024-02-21T09:41:50;47.89;44.08;57.41;;
43938;Laerm;71382;47.750;10.226;2024-02-21T09:44:17;48.55;44.53;64.16;;
43938;Laerm;71382;47.750;10.226;2024-02-21T09:46:47;48.00;43.86;62.00;;
43938;Laerm;71382;47.750;10.226;2024-02-21T09:51:41;46.73;43.42;54.19;;
43938;Laerm;71382;47.750;10.226;2024-02-21T09:54:07;46.58;43.15;54.86;;
43938;Laerm;71382;47.750;10.226;2024-02-21T09:56:32;46.93;44.34;53.00;;
43938;Laerm;71382;47.750;10.226;2024-02-21T09:58:58;47.42;44.04;52.59;;
43938;Laerm;71382;47.750;10.226;2024-02-21T10:01:24;48.46;44.33;57.91;;
43938;Laerm;71382;47.750;10.226;2024-02-21T10:03:50;48.13;43.85;54.84;;
43938;Laerm;71382;47.750;10.226;2024-02-21T10:06:16;46.22;43.47;49.90;;
43938;Laerm;71382;47.750;10.226;2024-02-21T10:08:41;45.68;43.01;50.92;;
43938;Laerm;71382;47.750;10.226;2024-02-21T10:11:07;45.36;42.67;53.19;;
43938;Laerm;71382;47.750;10.226;2024-02-21T10:13:34;45.35;42.85;49.62;;
43938;Laerm;71382;47.750;10.226;2024-02-21T10:16:06;45.77;43.34;53.90;;
43938;Laerm;71382;47.750;10.226;2024-02-21T10:18:32;51.84;42.45;66.27;;
43938;Laerm;71382;47.750;10.226;2024-02-21T10:23:27;46.57;42.72;53.94;;
43938;Laerm;71382;47.750;10.226;2024-02-21T10:25:52;46.16;42.85;61.21;;
43938;Laerm;71382;47.750;10.226;2024-02-21T10:28:18;45.82;42.89;57.63;;
43938;Laerm;71382;47.750;10.226;2024-02-21T10:30:51;45.93;43.18;58.28;;
43938;Laerm;71382;47.750;10.226;2024-02-21T10:33:17;47.42;43.35;57.74;;
43938;Laerm;71382;47.750;10.226;2024-02-21T10:35:47;46.84;43.11;60.98;;
43938;Laerm;71382;47.750;10.226;2024-02-21T10:38:13;43.78;38.95;56.39;;
43938;Laerm;71382;47.750;10.226;2024-02-21T10:40:38;44.16;40.68;52.88;;
43938;Laerm;71382;47.750;10.226;2024-02-21T10:43:04;44.46;40.75;49.99;;
43938;Laerm;71382;47.750;10.226;2024-02-21T10:45:32;49.43;41.43;54.89;;
43938;Laerm;71382;47.750;10.226;2024-02-21T10:48:06;46.72;42.70;55.32;;
43938;Laerm;71382;47.750;10.226;2024-02-21T10:50:35;48.25;44.76;56.89;;
43938;Laerm;71382;47.750;10.226;2024-02-21T10:53:15;46.43;43.11;51.06;;
43938;Laerm;71382;47.750;10.226;2024-02-21T10:55:51;49.29;43.16;64.39;;
43938;Laerm;71382;47.750;10.226;2024-02-21T10:58:21;50.06;42.63;62.97;;
43938;Laerm;71382;47.750;10.226;2024-02-21T11:00:47;45.41;41.24;61.52;;
43938;Laerm;71382;47.750;10.226;2024-02-21T11:03:14;45.84;40.96;55.25;;
43938;Laerm;71382;47.750;10.226;2024-02-21T11:05:40;45.23;40.53;50.73;;
43938;Laerm;71382;47.750;10.226;2024-02-21T11:08:07;45.88;43.36;51.61;;
43938;Laerm;71382;47.750;10.226;2024-02-21T11:10:36;48.29;46.89;52.82;;
43938;Laerm;71382;47.750;10.226;2024-02-21T11:13:05;47.41;44.60;51.98;;
43938;Laerm;71382;47.750;10.226;2024-02-21T11:15:32;46.13;39.21;59.71;;
43938;Laerm;71382;47.750;10.226;2024-02-21T11:17:58;42.59;38.48;50.39;;
43938;Laerm;71382;47.750;10.226;2024-02-21T11:20:36;42.26;37.33;49.15;;
43938;Laerm;71382;47.750;10.226;2024-02-21T11:23:02;43.03;39.76;50.69;;
43938;Laerm;71382;47.750;10.226;2024-02-21T11:25:28;41.83;38.11;47.07;;
43938;Laerm;71382;47.750;10.226;2024-02-21T11:27:59;46.47;38.97;52.09;;
43938;Laerm;71382;47.750;10.226;2024-02-21T11:30:31;50.13;47.18;54.20;;
43938;Laerm;71382;47.750;10.226;2024-02-21T11:33:03;52.46;43.70;65.16;;
43938;Laerm;71382;47.750;10.226;2024-02-21T11:35:32;46.92;44.49;54.79;;
43938;Laerm;71382;47.750;10.226;2024-02-21T11:38:11;48.02;42.02;54.57;;
43938;Laerm;71382;47.750;10.226;2024-02-21T11:40:40;48.66;40.56;57.16;;
43938;Laerm;71382;47.750;10.226;2024-02-21T11:43:07;49.40;46.21;63.44;;
43938;Laerm;71382;47.750;10.226;2024-02-21T11:45:33;50.02;40.93;59.76;;
43938;Laerm;71382;47.750;10.226;2024-02-21T11:47:59;49.14;45.74;61.00;;
43938;Laerm;71382;47.750;10.226;2024-02-21T11:50:26;48.66;44.50;55.56;;
43938;Laerm;71382;47.750;10.226;2024-02-21T11:52:54;47.70;45.69;57.15;;
43938;Laerm;71382;47.750;10.226;2024-02-21T11:55:19;54.47;43.72;59.48;;
43938;Laerm;71382;47.750;10.226;2024-02-21T11:57:47;55.87;42.87;65.81;;
43938;Laerm;71382;47.750;10.226;2024-02-21T12:00:13;54.88;53.52;62.05;;
43938;Laerm;71382;47.750;10.226;2024-02-21T12:02:40;54.28;53.38;56.63;;
43938;Laerm;71382;47.750;10.226;2024-02-21T12:05:06;54.43;53.71;56.58;;
43938;Laerm;71382;47.750;10.226;2024-02-21T12:07:32;54.27;53.62;56.90;;
43938;Laerm;71382;47.750;10.226;2024-02-21T12:10:00;55.60;53.88;64.96;;
43938;Laerm;71382;47.750;10.226;2024-02-21T12:12:26;55.46;53.97;65.56;;
43938;Laerm;71382;47.750;10.226;2024-02-21T12:14:55;54.75;53.84;57.05;;
43938;Laerm;71382;47.750;10.226;2024-02-21T12:17:23;54.70;53.74;64.03;;
43938;Laerm;71382;47.750;10.226;2024-02-21T12:19:50;54.22;53.32;57.38;;
43938;Laerm;71382;47.750;10.226;2024-02-21T12:22:18;52.58;46.41;55.33;;
43938;Laerm;71382;47.750;10.226;2024-02-21T12:24:44;47.25;44.22;53.07;;
43938;Laerm;71382;47.750;10.226;2024-02-21T12:27:13;47.15;43.21;53.02;;
43938;Laerm;71382;47.750;10.226;2024-02-21T12:29:39;47.42;43.45;52.29;;
43938;Laerm;71382;47.750;10.226;2024-02-21T12:32:04;48.01;45.43;56.18;;
43938;Laerm;71382;47.750;10.226;2024-02-21T12:34:30;48.67;45.21;52.40;;
43938;Laerm;71382;47.750;10.226;2024-02-21T12:36:59;50.15;46.68;56.57;;
43938;Laerm;71382;47.750;10.226;2024-02-21T12:39:24;50.73;48.55;58.95;;
43938;Laerm;71382;47.750;10.226;2024-02-21T12:41:53;51.30;49.00;59.35;;
43938;Laerm;71382;47.750;10.226;2024-02-21T12:44:19;52.70;50.92;54.53;;
43938;Laerm;71382;47.750;10.226;2024-02-21T12:46:45;52.09;48.82;55.41;;
43938;Laerm;71382;47.750;10.226;2024-02-21T12:49:11;51.00;46.61;60.72;;
43938;Laerm;71382;47.750;10.226;2024-02-21T12:51:37;52.27;42.04;65.46;;
43938;Laerm;71382;47.750;10.226;2024-02-21T12:54:05;51.43;41.46;60.73;;
43938;Laerm;71382;47.750;10.226;2024-02-21T12:56:30;49.37;41.65;58.30;;
43938;Laerm;71382;47.750;10.226;2024-02-21T12:58:57;49.79;42.46;55.68;;
43938;Laerm;71382;47.750;10.226;2024-02-21T13:01:23;45.37;36.97;57.84;;
43938;Laerm;71382;47.750;10.226;2024-02-21T13:03:49;40.74;36.07;55.03;;
43938;Laerm;71382;47.750;10.226;2024-02-21T13:06:14;43.89;37.73;56.50;;
43938;Laerm;71382;47.750;10.226;2024-02-21T13:08:40;46.93;40.30;60.49;;
43938;Laerm;71382;47.750;10.226;2024-02-21T13:11:06;45.87;42.60;57.21;;
43938;Laerm;71382;47.750;10.226;2024-02-21T13:13:34;46.10;42.81;55.34;;
43938;Laerm;71382;47.750;10.226;2024-02-21T13:16:00;46.61;43.06;52.11;;
43938;Laerm;71382;47.750;10.226;2024-02-21T13:18:26;46.92;43.82;51.78;;
43938;Laerm;71382;47.750;10.226;2024-02-21T13:20:51;46.87;42.90;55.63;;
43938;Laerm;71382;47.750;10.226;2024-02-21T13:23:17;47.34;43.33;58.30;;
43938;Laerm;71382;47.750;10.226;2024-02-21T13:25:43;46.82;43.06;56.54;;
43938;Laerm;71382;47.750;10.226;2024-02-21T13:28:11;46.37;43.56;57.87;;
43938;Laerm;71382;47.750;10.226;2024-02-21T13:30:37;48.44;43.11;63.43;;
43938;Laerm;71382;47.750;10.226;2024-02-21T13:33:02;50.63;42.43;64.74;;